D/T METAR WX W/SPE G/SPE TEMP DEWP FEEL
25/05/22 01:50 EGPU 250050Z AUTO 21017KT 6000 DZ FEW007/// BKN030/// 10/09 Q0999 DZ 19.6mph 10°C 9°C 10.8°C
25/05/22 01:20 EGPU 250020Z AUTO 20017KT 9000 DZ FEW013/// SCT038/// 10/09 Q0999 DZ 19.6mph 10°C 9°C 10.8°C
25/05/22 00:50 EGPU 242350Z AUTO 21015KT 180V240 9999 -RA FEW038/// BKN045/// 10/09 Q1000 -RA 17.3mph 10°C 9°C 10.8°C
25/05/22 00:20 EGPU 242320Z AUTO 20014KT 180V240 9999 FEW042/// 11/09 Q1000 RERA 16.1mph 11°C 9°C 11.8°C
24/05/22 23:50 EGPU 242250Z AUTO 21013KT 180V240 9999 -RA BKN048/// 10/09 Q1001 -RA 15.0mph 10°C 9°C 10.8°C
24/05/22 23:20 EGPU 242220Z AUTO 20013KT 170V230 9999 -RA FEW015/// BKN048/// 10/09 Q1001 -RA 15.0mph 10°C 9°C 10.8°C
24/05/22 22:50 EGPU 242150Z AUTO 21010KT 180V250 9999 BKN048/// 10/08 Q1002 RERA 11.5mph 10°C 8°C 10.4°C
24/05/22 22:20 EGPU 242120Z AUTO 22010KT 190V250 9999 BKN044/// 10/08 Q1002 RERA 11.5mph 10°C 8°C 10.4°C
24/05/22 21:50 EGPU 242050Z AUTO 23011KT 190V260 9999 -RA NCD 11/08 Q1002 -RA 12.7mph 11°C 8°C 11.4°C
24/05/22 21:20 EGPU 242020Z AUTO 23011KT 210V270 9999 FEW045/// 11/08 Q1002 RERA 12.7mph 11°C 8°C 11.4°C
24/05/22 20:50 EGPU 241950Z AUTO 22012KT 180V250 9999 -RA FEW028/// 11/08 Q1003 -RA 13.8mph 11°C 8°C 11.4°C
24/05/22 20:20 EGPU 241920Z AUTO 24012KT 9999 NCD 11/08 Q1003 13.8mph 11°C 8°C 11.4°C
24/05/22 19:50 EGPU 241850Z AUTO 24014KT 9999 BKN045/// 12/07 Q1003 16.1mph 12°C 7°C 12.0°C
24/05/22 19:20 EGPU 241820Z AUTO 23012KT 9999 FEW018/// BKN046/// 12/08 Q1003 13.8mph 12°C 8°C 12.4°C
24/05/22 18:50 EGPU 241750Z AUTO 24012KT 210V270 9999 SCT041/// 11/08 Q1003 13.8mph 11°C 8°C 11.4°C
24/05/22 18:20 EGPU 241720Z 26012KT 9999 FEW019 12/08 Q1003 13.8mph 12°C 8°C 12.4°C
24/05/22 17:50 EGPU 241650Z 27014KT 9999 FEW017 13/08 Q1003 16.1mph 13°C 8°C 13.4°C
24/05/22 17:20 EGPU 241620Z 28016KT 9999 FEW016 13/08 Q1003 18.4mph 13°C 8°C 13.4°C
24/05/22 16:50 EGPU 241550Z 28017KT 9999 FEW016 13/09 Q1003 19.6mph 13°C 9°C 13.8°C
24/05/22 16:20 EGPU 241520Z 29015KT 9999 FEW016 14/10 Q1003 17.3mph 14°C 10°C 15.3°C
24/05/22 15:50 EGPU 241450Z 29016KT 9999 SCT016 13/09 Q1003 18.4mph 13°C 9°C 13.8°C
24/05/22 15:20 EGPU 241420Z AUTO 30015KT 270V330 9999 SCT016/// 14/10 Q1003 17.3mph 14°C 10°C 15.3°C
24/05/22 14:50 EGPU 241350Z 29015KT 9999 FEW017 13/09 Q1003 17.3mph 13°C 9°C 13.8°C
24/05/22 14:20 EGPU 241320Z 28016KT 250V310 9999 FEW014 13/09 Q1003 18.4mph 13°C 9°C 13.8°C
24/05/22 13:50 EGPU 241250Z 30014KT 9999 FEW016 12/08 Q1003 16.1mph 12°C 8°C 12.4°C
24/05/22 13:20 EGPU 241220Z 29013KT 9999 FEW014 12/08 Q1002 15.0mph 12°C 8°C 12.4°C
24/05/22 12:50 EGPU 241150Z AUTO 29014KT 260V320 9999 FEW015/// 13/09 Q1002 16.1mph 13°C 9°C 13.8°C
24/05/22 12:20 EGPU 241120Z 30013KT 9999 FEW015 13/10 Q1002 15.0mph 13°C 10°C 14.3°C
24/05/22 11:50 EGPU 241050Z 31011KT 9999 FEW016 13/08 Q1002 12.7mph 13°C 8°C 13.4°C
24/05/22 11:20 EGPU 241020Z 31011KT 9999 SCT016 13/09 Q1002 12.7mph 13°C 9°C 13.8°C
24/05/22 10:50 EGPU 240950Z 31011KT 9999 FEW013 13/09 Q1002 12.7mph 13°C 9°C 13.8°C
24/05/22 10:20 EGPU 240920Z 30011KT 9999 FEW016 13/09 Q1002 12.7mph 13°C 9°C 13.8°C
24/05/22 09:50 EGPU 240850Z 33009KT 9999 FEW013 12/08 Q1001 10.4mph 12°C 8°C 12.4°C
24/05/22 09:20 EGPU 240820Z 31009KT 9999 FEW012 12/09 Q1001 10.4mph 12°C 9°C 12.8°C
24/05/22 08:50 EGPU 240750Z 31009KT 9999 FEW013 12/08 Q1001 10.4mph 12°C 8°C 12.4°C
24/05/22 08:20 EGPU 240720Z AUTO 32009KT 9999 FEW012/// 12/09 Q1001 10.4mph 12°C 9°C 12.8°C
24/05/22 07:50 EGPU 240650Z AUTO 31008KT 9999 SCT011/// 11/09 Q1001 9.2mph 11°C 9°C 11.8°C
24/05/22 07:20 EGPU 240620Z AUTO 30009KT 9999 FEW010/// 11/08 Q1001 10.4mph 11°C 8°C 11.4°C
24/05/22 06:50 EGPU 240550Z AUTO 30008KT 9999 FEW011/// 11/09 Q1000 9.2mph 11°C 9°C 11.8°C
24/05/22 06:20 EGPU 240520Z AUTO 29006KT 220V310 9999 NCD 10/08 Q1000 RERA 6.9mph 10°C 8°C 10.4°C
24/05/22 05:50 EGPU 240450Z AUTO 29006KT 9999 BKN048/// 10/09 Q1000 RERA 6.9mph 10°C 9°C 10.8°C
24/05/22 05:20 EGPU 240420Z AUTO 29006KT 9999 FEW040/// 10/08 Q1000 6.9mph 10°C 8°C 10.4°C
24/05/22 04:50 EGPU 240350Z AUTO 29007KT 9999 NCD 10/08 Q1000 8.1mph 10°C 8°C 10.4°C
24/05/22 04:20 EGPU 240320Z AUTO 29006KT 9999 NCD 10/08 Q1000 6.9mph 10°C 8°C 10.4°C
24/05/22 03:50 EGPU 240250Z AUTO 30005KT 9999 NCD 10/09 Q1000 5.8mph 10°C 9°C 10.8°C
24/05/22 03:20 EGPU 240220Z AUTO 29007KT 9999 NCD 10/08 Q1000 8.1mph 10°C 8°C 10.4°C
24/05/22 02:50 EGPU 240150Z AUTO 29006KT 9999 NCD 10/08 Q1000 RERA 6.9mph 10°C 8°C 10.4°C
24/05/22 02:20 EGPU 240120Z AUTO 29007KT 9999 FEW013/// 10/08 Q1000 RERA 8.1mph 10°C 8°C 10.4°C
24/05/22 01:50 EGPU 240050Z AUTO 29006KT 9999 NCD 10/08 Q1000 RERA 6.9mph 10°C 8°C 10.4°C
24/05/22 01:20 EGPU 240020Z AUTO 30006KT 9999 NCD 10/08 Q1000 6.9mph 10°C 8°C 10.4°C
24/05/22 00:50 EGPU 232350Z AUTO 30007KT 9999 FEW011/// 10/08 Q1000 8.1mph 10°C 8°C 10.4°C
24/05/22 00:20 EGPU 232320Z AUTO 29006KT 9999 FEW014/// 10/08 Q1000 6.9mph 10°C 8°C 10.4°C
23/05/22 23:50 EGPU 232250Z AUTO 28006KT 9999 NCD 10/08 Q1000 6.9mph 10°C 8°C 10.4°C
23/05/22 23:20 EGPU 232220Z AUTO 29007KT 9999 NCD 10/08 Q1000 8.1mph 10°C 8°C 10.4°C
23/05/22 22:50 EGPU 232150Z AUTO 29006KT 9999 NCD 10/08 Q1000 6.9mph 10°C 8°C 10.4°C
23/05/22 22:20 EGPU 232120Z AUTO 29008KT 9999 NCD 10/08 Q1000 9.2mph 10°C 8°C 10.4°C
23/05/22 21:50 EGPU 232050Z AUTO 29006KT 9999 NCD 10/07 Q1000 6.9mph 10°C 7°C 10.0°C
23/05/22 21:20 EGPU 232020Z AUTO 29008KT 9999 NCD 10/08 Q1000 9.2mph 10°C 8°C 10.4°C
23/05/22 20:50 EGPU 231950Z AUTO 29009KT 9999 NCD 11/08 Q1000 10.4mph 11°C 8°C 11.4°C
23/05/22 20:20 EGPU 231920Z AUTO 30009KT 9999 NCD 11/08 Q1000 10.4mph 11°C 8°C 11.4°C
23/05/22 19:50 EGPU 231850Z AUTO 30009KT 260V320 9999 FEW014/// 11/08 Q1000 10.4mph 11°C 8°C 11.4°C
23/05/22 19:20 EGPU 231820Z AUTO 29009KT 9999 FEW015/// 12/08 Q1000 10.4mph 12°C 8°C 12.4°C
23/05/22 18:50 EGPU 231750Z AUTO 29010KT 9999 NCD 12/08 Q1000 11.5mph 12°C 8°C 12.4°C
23/05/22 18:20 EGPU 231720Z 29011KT 9999 FEW020 12/08 Q1000 12.7mph 12°C 8°C 12.4°C
23/05/22 17:50 EGPU 231650Z 30011KT 9999 FEW020 12/07 Q1000 12.7mph 12°C 7°C 12.0°C
23/05/22 17:20 EGPU 231620Z 29011KT 9999 FEW020 13/07 Q1000 12.7mph 13°C 7°C 13.0°C
23/05/22 16:50 EGPU 231550Z AUTO 30012KT 270V330 9999 NCD 13/08 Q1000 13.8mph 13°C 8°C 13.4°C
23/05/22 16:20 EGPU 231520Z AUTO 30011KT 270V330 9999 FEW015/// 12/07 Q1000 12.7mph 12°C 7°C 12.0°C
23/05/22 15:50 EGPU 231450Z AUTO 31011KT 9999 SCT015/// 13/09 Q1000 12.7mph 13°C 9°C 13.8°C
23/05/22 15:20 EGPU 231420Z AUTO 32011KT 280V350 9999 SCT015/// 13/09 Q1000 12.7mph 13°C 9°C 13.8°C
23/05/22 14:50 EGPU 231350Z AUTO 31011KT 9999 SCT016/// 13/09 Q1000 12.7mph 13°C 9°C 13.8°C
23/05/22 14:20 EGPU 231320Z 30010KT 9999 FEW017 13/09 Q1000 11.5mph 13°C 9°C 13.8°C
23/05/22 13:50 EGPU 231250Z 30009KT 9999 FEW018 13/09 Q1000 10.4mph 13°C 9°C 13.8°C
23/05/22 13:20 EGPU 231220Z 30011KT 9999 FEW035 13/08 Q1000 12.7mph 13°C 8°C 13.4°C
23/05/22 12:50 EGPU 231150Z AUTO 30011KT 270V330 9999 FEW015/// 12/07 Q1000 12.7mph 12°C 7°C 12.0°C
23/05/22 12:20 EGPU 231120Z 30011KT 9999 FEW035 12/08 Q1000 12.7mph 12°C 8°C 12.4°C
23/05/22 11:50 EGPU 231050Z 30011KT 9999 FEW035 13/08 Q1000 12.7mph 13°C 8°C 13.4°C
23/05/22 11:20 EGPU 231020Z 31011KT 9999 FEW014 SCT049 12/07 Q1001 12.7mph 12°C 7°C 12.0°C
23/05/22 10:50 EGPU 230950Z AUTO 32009KT 290V350 9999 BKN046/// 12/07 Q1001 RERA 10.4mph 12°C 7°C 12.0°C
23/05/22 10:20 EGPU 230920Z 32013KT 9999 FEW013 11/07 Q1001 15.0mph 11°C 7°C 11.0°C
23/05/22 09:50 EGPU 230850Z 32012KT 9999 FEW013 SCT039 11/09 Q1001 13.8mph 11°C 9°C 11.8°C
23/05/22 09:20 EGPU 230820Z 33010KT 9999 FEW013 SCT044 11/08 Q1000 11.5mph 11°C 8°C 11.4°C
23/05/22 08:50 EGPU 230750Z 33010KT 9999 SCT035 11/08 Q1000 11.5mph 11°C 8°C 11.4°C
23/05/22 08:20 EGPU 230720Z 32010KT 9999 SCT036 11/08 Q1000 11.5mph 11°C 8°C 11.4°C
23/05/22 07:50 EGPU 230650Z AUTO 33011KT 9999 FEW013/// 11/08 Q1000 12.7mph 11°C 8°C 11.4°C
23/05/22 07:20 EGPU 230620Z AUTO 32009KT 9999 FEW032/// BKN039/// 10/09 Q1000 REDZ 10.4mph 10°C 9°C 10.8°C
23/05/22 06:50 EGPU 230550Z AUTO 33011KT 9999 FEW029/// BKN045/// 10/08 Q1000 REDZ 12.7mph 10°C 8°C 10.4°C
23/05/22 06:20 EGPU 230520Z AUTO 33011KT 9999 BKN021/// 10/08 Q1000 REDZ 12.7mph 10°C 8°C 10.4°C
23/05/22 05:50 EGPU 230450Z AUTO 33010KT 310V010 9999 FEW007/// BKN021/// 09/09 Q1000 RERA 11.5mph 9°C 9°C 9.8°C
23/05/22 05:20 EGPU 230420Z AUTO 35014KT 330V070 9999 -RADZ SCT007/// BKN026/// 09/08 Q1000 -RA -DZ 16.1mph 9°C 8°C 9.4°C
23/05/22 04:50 EGPU 230350Z AUTO 33014KT 9999 SCT023/// BKN039/// 10/08 Q1000 RERA 16.1mph 10°C 8°C 10.4°C
23/05/22 04:20 EGPU 230320Z AUTO 32014KT 9999 -RA FEW006/// SCT009/// BKN023/// 10/09 Q1000 -RA 16.1mph 10°C 9°C 10.8°C
23/05/22 03:50 EGPU 230250Z AUTO 33015KT 9999 SCT006/// BKN012/// 10/09 Q1000 REDZ 17.3mph 10°C 9°C 10.8°C
23/05/22 03:20 EGPU 230220Z AUTO 33016KT 9999 BKN006/// BKN013/// BKN018/// 10/09 Q1000 REDZ 18.4mph 10°C 9°C 10.8°C
23/05/22 02:50 EGPU 230150Z AUTO 33017KT 9999 OVC005/// 10/09 Q1000 19.6mph 10°C 9°C 10.8°C
23/05/22 02:20 EGPU 230120Z AUTO 32014KT 9999 BKN006/// 10/09 Q1000 16.1mph 10°C 9°C 10.8°C